sensor_id;sensor_type;location;lat;lon;timestamp;pressure;altitude;pressure_sealevel;temperature;humidity
53858;BME280;39763;51.188;6.690;2022-09-09T00:00:05;100514.72;;;22.47;57.84
53858;BME280;39763;51.188;6.690;2022-09-09T00:01:39;100509.25;;;22.48;57.95
53858;BME280;39763;51.188;6.690;2022-09-09T00:03:16;100509.84;;;22.52;57.84
53858;BME280;39763;51.188;6.690;2022-09-09T00:04:52;100518.72;;;22.52;57.40
53858;BME280;39763;51.188;6.690;2022-09-09T00:06:33;100512.63;;;22.50;57.70
53858;BME280;39763;51.188;6.690;2022-09-09T00:08:07;100499.13;;;22.52;57.57
53858;BME280;39763;51.188;6.690;2022-09-09T00:09:45;100506.31;;;22.51;57.41
53858;BME280;39763;51.188;6.690;2022-09-09T00:11:18;100503.75;;;22.50;57.52
53858;BME280;39763;51.188;6.690;2022-09-09T00:12:53;100502.06;;;22.49;56.80
53858;BME280;39763;51.188;6.690;2022-09-09T00:14:32;100495.53;;;22.42;56.95
53858;BME280;39763;51.188;6.690;2022-09-09T00:16:07;100502.41;;;22.35;57.42
53858;BME280;39763;51.188;6.690;2022-09-09T00:17:43;100496.59;;;22.30;57.36
53858;BME280;39763;51.188;6.690;2022-09-09T00:19:20;100502.78;;;22.30;57.60
53858;BME280;39763;51.188;6.690;2022-09-09T00:20:57;100506.44;;;22.29;57.54
53858;BME280;39763;51.188;6.690;2022-09-09T00:22:34;100505.41;;;22.21;57.23
53858;BME280;39763;51.188;6.690;2022-09-09T00:24:11;100500.31;;;22.17;57.64
53858;BME280;39763;51.188;6.690;2022-09-09T00:25:49;100506.66;;;22.16;57.71
53858;BME280;39763;51.188;6.690;2022-09-09T00:27:25;100503.13;;;22.16;57.51
53858;BME280;39763;51.188;6.690;2022-09-09T00:29:03;100501.53;;;22.13;58.02
53858;BME280;39763;51.188;6.690;2022-09-09T00:30:36;100504.94;;;22.15;58.01
53858;BME280;39763;51.188;6.690;2022-09-09T00:32:11;100507.13;;;22.22;58.14
53858;BME280;39763;51.188;6.690;2022-09-09T00:33:43;100508.41;;;22.27;57.77
53858;BME280;39763;51.188;6.690;2022-09-09T00:35:16;100510.94;;;22.29;57.60
53858;BME280;39763;51.188;6.690;2022-09-09T00:36:51;100497.97;;;22.24;57.80
53858;BME280;39763;51.188;6.690;2022-09-09T00:38:25;100509.25;;;22.28;57.96
53858;BME280;39763;51.188;6.690;2022-09-09T00:40:00;100499.97;;;22.32;57.82
53858;BME280;39763;51.188;6.690;2022-09-09T00:41:37;100498.28;;;22.31;57.40
53858;BME280;39763;51.188;6.690;2022-09-09T00:43:19;100492.34;;;22.27;57.38
53858;BME280;39763;51.188;6.690;2022-09-09T00:44:54;100493.47;;;22.25;57.43
53858;BME280;39763;51.188;6.690;2022-09-09T00:46:32;100480.75;;;22.17;57.43
53858;BME280;39763;51.188;6.690;2022-09-09T00:48:10;100493.09;;;22.08;57.43
53858;BME280;39763;51.188;6.690;2022-09-09T00:49:45;100494.06;;;22.07;58.08
53858;BME280;39763;51.188;6.690;2022-09-09T00:51:23;100486.63;;;22.11;58.31
53858;BME280;39763;51.188;6.690;2022-09-09T00:53:02;100492.53;;;22.14;58.16
53858;BME280;39763;51.188;6.690;2022-09-09T00:54:40;100491.44;;;22.17;57.96
53858;BME280;39763;51.188;6.690;2022-09-09T00:56:16;100495.34;;;22.13;57.47
53858;BME280;39763;51.188;6.690;2022-09-09T00:57:51;100489.31;;;22.11;58.11
53858;BME280;39763;51.188;6.690;2022-09-09T00:59:25;100494.25;;;22.15;58.27
53858;BME280;39763;51.188;6.690;2022-09-09T01:01:01;100500.78;;;22.23;58.08
53858;BME280;39763;51.188;6.690;2022-09-09T01:02:38;100498.28;;;22.31;58.10
53858;BME280;39763;51.188;6.690;2022-09-09T01:04:12;100500.72;;;22.34;57.58
53858;BME280;39763;51.188;6.690;2022-09-09T01:05:48;100493.53;;;22.34;57.76
53858;BME280;39763;51.188;6.690;2022-09-09T01:07:22;100497.78;;;22.37;57.80
53858;BME280;39763;51.188;6.690;2022-09-09T01:09:00;100494.69;;;22.41;57.48
53858;BME280;39763;51.188;6.690;2022-09-09T01:10:36;100490.91;;;22.44;57.56
53858;BME280;39763;51.188;6.690;2022-09-09T01:12:14;100492.47;;;22.46;57.55
53858;BME280;39763;51.188;6.690;2022-09-09T01:13:48;100498.66;;;22.47;57.16
53858;BME280;39763;51.188;6.690;2022-09-09T01:15:24;100486.13;;;22.47;57.41
53858;BME280;39763;51.188;6.690;2022-09-09T01:16:58;100491.63;;;22.46;57.21
53858;BME280;39763;51.188;6.690;2022-09-09T01:18:33;100488.78;;;22.38;57.03
53858;BME280;39763;51.188;6.690;2022-09-09T01:20:10;100486.59;;;22.32;57.16
53858;BME280;39763;51.188;6.690;2022-09-09T01:21:54;100491.25;;;22.30;57.57
53858;BME280;39763;51.188;6.690;2022-09-09T01:23:36;100488.31;;;22.33;57.57
53858;BME280;39763;51.188;6.690;2022-09-09T01:26:02;100487.78;;;22.39;57.61
53858;BME280;39763;51.188;6.690;2022-09-09T01:27:36;100482.88;;;22.44;57.49
53858;BME280;39763;51.188;6.690;2022-09-09T01:29:09;100485.16;;;22.48;57.34
53858;BME280;39763;51.188;6.690;2022-09-09T01:30:43;100495.47;;;22.53;57.24
53858;BME280;39763;51.188;6.690;2022-09-09T01:32:37;100484.34;;;22.58;56.99
53858;BME280;39763;51.188;6.690;2022-09-09T01:34:11;100484.66;;;22.64;56.74
53858;BME280;39763;51.188;6.690;2022-09-09T01:35:45;100488.66;;;22.70;56.68
53858;BME280;39763;51.188;6.690;2022-09-09T01:37:20;100493.00;;;22.71;56.57
53858;BME280;39763;51.188;6.690;2022-09-09T01:38:52;100484.69;;;22.74;56.51
53858;BME280;39763;51.188;6.690;2022-09-09T01:40:24;100481.47;;;22.70;56.30
53858;BME280;39763;51.188;6.690;2022-09-09T01:41:58;100481.47;;;22.70;56.39
53858;BME280;39763;51.188;6.690;2022-09-09T01:43:31;100477.78;;;22.71;56.25
53858;BME280;39763;51.188;6.690;2022-09-09T01:45:04;100474.41;;;22.69;56.38
53858;BME280;39763;51.188;6.690;2022-09-09T01:46:36;100474.41;;;22.69;56.52
53858;BME280;39763;51.188;6.690;2022-09-09T01:48:08;100474.69;;;22.66;56.21
53858;BME280;39763;51.188;6.690;2022-09-09T01:49:49;100482.97;;;22.63;56.29
53858;BME280;39763;51.188;6.690;2022-09-09T01:51:26;100480.69;;;22.59;56.45
53858;BME280;39763;51.188;6.690;2022-09-09T01:52:58;100478.16;;;22.57;56.48
53858;BME280;39763;51.188;6.690;2022-09-09T01:54:34;100476.75;;;22.53;56.13
53858;BME280;39763;51.188;6.690;2022-09-09T01:56:22;100481.38;;;22.51;56.63
53858;BME280;39763;51.188;6.690;2022-09-09T01:58:06;100479.81;;;22.48;56.68
53858;BME280;39763;51.188;6.690;2022-09-09T01:59:50;100473.34;;;22.51;56.76
53858;BME280;39763;51.188;6.690;2022-09-09T02:01:27;100487.44;;;22.53;56.77
53858;BME280;39763;51.188;6.690;2022-09-09T02:03:05;100486.16;;;22.57;56.68
53858;BME280;39763;51.188;6.690;2022-09-09T02:04:50;100481.28;;;22.62;56.47
53858;BME280;39763;51.188;6.690;2022-09-09T02:06:27;100480.88;;;22.67;56.27
53858;BME280;39763;51.188;6.690;2022-09-09T02:08:07;100479.06;;;22.67;56.19
53858;BME280;39763;51.188;6.690;2022-09-09T02:09:51;100483.31;;;22.70;56.20
53858;BME280;39763;51.188;6.690;2022-09-09T02:11:27;100484.16;;;22.70;55.99
53858;BME280;39763;51.188;6.690;2022-09-09T02:13:24;100490.31;;;22.71;55.93
53858;BME280;39763;51.188;6.690;2022-09-09T02:14:58;100484.84;;;22.72;56.22
53858;BME280;39763;51.188;6.690;2022-09-09T02:16:40;100490.91;;;22.74;55.76
53858;BME280;39763;51.188;6.690;2022-09-09T02:18:15;100484.84;;;22.72;55.42
53858;BME280;39763;51.188;6.690;2022-09-09T02:19:52;100477.94;;;22.70;56.09
53858;BME280;39763;51.188;6.690;2022-09-09T02:21:40;100479.63;;;22.71;55.95
53858;BME280;39763;51.188;6.690;2022-09-09T02:23:13;100484.97;;;22.71;55.97
53858;BME280;39763;51.188;6.690;2022-09-09T02:24:48;100474.25;;;22.71;55.97
53858;BME280;39763;51.188;6.690;2022-09-09T02:26:26;100483.44;;;22.68;55.53
53858;BME280;39763;51.188;6.690;2022-09-09T02:28:04;100476.50;;;22.66;55.71
53858;BME280;39763;51.188;6.690;2022-09-09T02:29:40;100481.28;;;22.62;55.35
53858;BME280;39763;51.188;6.690;2022-09-09T02:31:13;100481.66;;;22.58;55.75
53858;BME280;39763;51.188;6.690;2022-09-09T02:32:46;100477.59;;;22.54;56.00
53858;BME280;39763;51.188;6.690;2022-09-09T02:34:20;100476.03;;;22.51;56.21
53858;BME280;39763;51.188;6.690;2022-09-09T02:35:54;100474.59;;;22.47;56.10
53858;BME280;39763;51.188;6.690;2022-09-09T02:37:36;100469.09;;;22.48;56.36
53858;BME280;39763;51.188;6.690;2022-09-09T02:39:08;100470.78;;;22.49;56.40
53858;BME280;39763;51.188;6.690;2022-09-09T02:40:41;100480.41;;;22.52;56.25
53858;BME280;39763;51.188;6.690;2022-09-09T02:42:13;100478.44;;;22.54;56.14
53858;BME280;39763;51.188;6.690;2022-09-09T02:43:47;100472.94;;;22.56;56.15
53858;BME280;39763;51.188;6.690;2022-09-09T02:45:20;100470.97;;;22.58;56.25
53858;BME280;39763;51.188;6.690;2022-09-09T02:47:00;100472.78;;;22.57;56.20
53858;BME280;39763;51.188;6.690;2022-09-09T02:48:38;100470.84;;;22.59;56.10
53858;BME280;39763;51.188;6.690;2022-09-09T02:50:15;100466.31;;;22.60;56.15
53858;BME280;39763;51.188;6.690;2022-09-09T02:51:51;100466.19;;;22.61;56.24
53858;BME280;39763;51.188;6.690;2022-09-09T02:53:24;100466.78;;;22.65;56.15
53858;BME280;39763;51.188;6.690;2022-09-09T02:55:01;100469.31;;;22.66;56.07
53858;BME280;39763;51.188;6.690;2022-09-09T02:56:37;100468.22;;;22.69;55.95
53858;BME280;39763;51.188;6.690;2022-09-09T02:58:12;100465.53;;;22.69;55.88
53858;BME280;39763;51.188;6.690;2022-09-09T02:59:45;100464.41;;;22.71;55.83
53858;BME280;39763;51.188;6.690;2022-09-09T03:01:19;100461.59;;;22.73;55.81
53858;BME280;39763;51.188;6.690;2022-09-09T03:02:50;100460.59;;;22.74;55.65
53858;BME280;39763;51.188;6.690;2022-09-09T03:04:22;100444.31;;;22.77;55.86
53858;BME280;39763;51.188;6.690;2022-09-09T03:05:55;100447.72;;;22.79;55.54
53858;BME280;39763;51.188;6.690;2022-09-09T03:07:29;100454.88;;;22.78;55.50
53858;BME280;39763;51.188;6.690;2022-09-09T03:09:01;100460.13;;;22.80;55.40
53858;BME280;39763;51.188;6.690;2022-09-09T03:10:34;100458.41;;;22.79;55.52
53858;BME280;39763;51.188;6.690;2022-09-09T03:12:06;100454.03;;;22.78;55.51
53858;BME280;39763;51.188;6.690;2022-09-09T03:13:39;100451.22;;;22.79;55.49
53858;BME280;39763;51.188;6.690;2022-09-09T03:15:10;100452.94;;;22.80;55.43
53858;BME280;39763;51.188;6.690;2022-09-09T03:16:45;100448.28;;;22.82;55.32
53858;BME280;39763;51.188;6.690;2022-09-09T03:18:17;100452.09;;;22.80;54.91
53858;BME280;39763;51.188;6.690;2022-09-09T03:19:53;100459.53;;;22.76;55.31
53858;BME280;39763;51.188;6.690;2022-09-09T03:21:26;100448.34;;;22.71;55.57
53858;BME280;39763;51.188;6.690;2022-09-09T03:22:59;100447.47;;;22.71;55.35
53858;BME280;39763;51.188;6.690;2022-09-09T03:24:30;100449.47;;;22.69;55.40
53858;BME280;39763;51.188;6.690;2022-09-09T03:26:02;100453.13;;;22.68;55.54
53858;BME280;39763;51.188;6.690;2022-09-09T03:27:42;100454.50;;;22.62;55.36
53858;BME280;39763;51.188;6.690;2022-09-09T03:29:15;100454.22;;;22.56;55.43
53858;BME280;39763;51.188;6.690;2022-09-09T03:30:47;100449.13;;;22.52;55.96
53858;BME280;39763;51.188;6.690;2022-09-09T03:32:21;100456.44;;;22.50;55.50
53858;BME280;39763;51.188;6.690;2022-09-09T03:33:53;100450.22;;;22.50;55.96
53858;BME280;39763;51.188;6.690;2022-09-09T03:35:25;100453.88;;;22.49;56.19
53858;BME280;39763;51.188;6.690;2022-09-09T03:36:57;100449.66;;;22.46;55.74
53858;BME280;39763;51.188;6.690;2022-09-09T03:38:29;100455.25;;;22.43;55.78
53858;BME280;39763;51.188;6.690;2022-09-09T03:40:02;100456.53;;;22.39;56.00
53858;BME280;39763;51.188;6.690;2022-09-09T03:41:34;100448.75;;;22.36;56.22
53858;BME280;39763;51.188;6.690;2022-09-09T03:43:06;100456.06;;;22.34;56.23
53858;BME280;39763;51.188;6.690;2022-09-09T03:44:38;100452.66;;;22.32;56.15
53858;BME280;39763;51.188;6.690;2022-09-09T03:46:10;100456.19;;;22.33;56.36
53858;BME280;39763;51.188;6.690;2022-09-09T03:47:43;100454.25;;;22.35;56.28
53858;BME280;39763;51.188;6.690;2022-09-09T03:49:14;100453.41;;;22.34;56.18
53858;BME280;39763;51.188;6.690;2022-09-09T03:50:46;100454.25;;;22.35;56.21
53858;BME280;39763;51.188;6.690;2022-09-09T03:52:18;100451.44;;;22.36;56.22
53858;BME280;39763;51.188;6.690;2022-09-09T03:53:55;100448.75;;;22.36;56.30
53858;BME280;39763;51.188;6.690;2022-09-09T03:55:28;100458.63;;;22.36;56.26
53858;BME280;39763;51.188;6.690;2022-09-09T03:56:59;100454.50;;;22.32;55.73
53858;BME280;39763;51.188;6.690;2022-09-09T03:58:31;100453.06;;;22.28;56.14
53858;BME280;39763;51.188;6.690;2022-09-09T04:00:10;100458.25;;;22.20;56.34
53858;BME280;39763;51.188;6.690;2022-09-09T04:01:48;100461.03;;;22.18;56.54
53858;BME280;39763;51.188;6.690;2022-09-09T04:03:21;100449.50;;;22.17;56.28
53858;BME280;39763;51.188;6.690;2022-09-09T04:04:58;100451.91;;;22.21;56.40
53858;BME280;39763;51.188;6.690;2022-09-09T04:06:30;100454.84;;;22.17;56.25
53858;BME280;39763;51.188;6.690;2022-09-09T04:08:02;100456.53;;;22.19;56.21
53858;BME280;39763;51.188;6.690;2022-09-09T04:09:34;100446.09;;;22.15;56.42
53858;BME280;39763;51.188;6.690;2022-09-09T04:11:06;100452.41;;;22.14;56.46
53858;BME280;39763;51.188;6.690;2022-09-09T04:12:39;100450.72;;;22.13;56.22
53858;BME280;39763;51.188;6.690;2022-09-09T04:14:10;100456.06;;;22.13;56.28
53858;BME280;39763;51.188;6.690;2022-09-09T04:15:42;100452.00;;;22.09;56.64
53858;BME280;39763;51.188;6.690;2022-09-09T04:17:14;100455.63;;;22.08;56.45
53858;BME280;39763;51.188;6.690;2022-09-09T04:18:47;100456.38;;;22.10;56.47
53858;BME280;39763;51.188;6.690;2022-09-09T04:20:20;100450.16;;;22.10;56.86
53858;BME280;39763;51.188;6.690;2022-09-09T04:21:53;100451.69;;;22.12;56.57
53858;BME280;39763;51.188;6.690;2022-09-09T04:23:26;100448.78;;;22.15;56.40
53858;BME280;39763;51.188;6.690;2022-09-09T04:25:01;100448.63;;;22.17;56.59
53858;BME280;39763;51.188;6.690;2022-09-09T04:26:33;100456.41;;;22.20;56.71
53858;BME280;39763;51.188;6.690;2022-09-09T04:28:05;100452.88;;;22.20;56.61
53858;BME280;39763;51.188;6.690;2022-09-09T04:29:37;100447.06;;;22.14;56.26
53858;BME280;39763;51.188;6.690;2022-09-09T04:31:09;100446.34;;;22.12;56.51
53858;BME280;39763;51.188;6.690;2022-09-09T04:32:43;100454.78;;;22.08;56.71
53858;BME280;39763;51.188;6.690;2022-09-09T04:34:16;100448.00;;;22.04;56.38
53858;BME280;39763;51.188;6.690;2022-09-09T04:35:49;100451.06;;;21.99;56.71
53858;BME280;39763;51.188;6.690;2022-09-09T04:37:22;100444.09;;;21.97;57.14
53858;BME280;39763;51.188;6.690;2022-09-09T04:38:54;100449.63;;;21.95;56.96
53858;BME280;39763;51.188;6.690;2022-09-09T04:40:25;100453.50;;;21.91;57.31
53858;BME280;39763;51.188;6.690;2022-09-09T04:41:57;100450.13;;;21.89;56.99
53858;BME280;39763;51.188;6.690;2022-09-09T04:43:29;100454.03;;;21.85;56.79
53858;BME280;39763;51.188;6.690;2022-09-09T04:45:02;100452.59;;;21.81;57.32
53858;BME280;39763;51.188;6.690;2022-09-09T04:46:35;100445.56;;;21.80;57.77
53858;BME280;39763;51.188;6.690;2022-09-09T04:48:06;100451.59;;;21.82;57.23
53858;BME280;39763;51.188;6.690;2022-09-09T04:49:39;100446.53;;;21.79;57.28
53858;BME280;39763;51.188;6.690;2022-09-09T04:51:12;100447.03;;;21.73;57.35
53858;BME280;39763;51.188;6.690;2022-09-09T04:52:44;100460.66;;;21.70;57.90
53858;BME280;39763;51.188;6.690;2022-09-09T04:54:15;100459.25;;;21.66;57.41
53858;BME280;39763;51.188;6.690;2022-09-09T04:55:48;100453.16;;;21.64;57.58
53858;BME280;39763;51.188;6.690;2022-09-09T04:57:20;100453.16;;;21.64;57.97
53858;BME280;39763;51.188;6.690;2022-09-09T04:58:52;100450.63;;;21.62;57.82
53858;BME280;39763;51.188;6.690;2022-09-09T05:00:27;100456.34;;;21.58;57.77
53858;BME280;39763;51.188;6.690;2022-09-09T05:01:59;100449.41;;;21.55;57.82
53858;BME280;39763;51.188;6.690;2022-09-09T05:03:32;100453.47;;;21.50;58.04
53858;BME280;39763;51.188;6.690;2022-09-09T05:05:06;100451.66;;;21.50;58.01
53858;BME280;39763;51.188;6.690;2022-09-09T05:06:37;100458.53;;;21.53;58.37
53858;BME280;39763;51.188;6.690;2022-09-09T05:08:09;100452.09;;;21.55;58.37
53858;BME280;39763;51.188;6.690;2022-09-09T05:09:41;100456.34;;;21.58;58.49
53858;BME280;39763;51.188;6.690;2022-09-09T05:11:14;100458.38;;;21.65;58.28
53858;BME280;39763;51.188;6.690;2022-09-09T05:12:51;100459.94;;;21.68;58.21
53858;BME280;39763;51.188;6.690;2022-09-09T05:14:24;100459.56;;;21.72;58.25
53858;BME280;39763;51.188;6.690;2022-09-09T05:15:55;100451.53;;;21.72;57.96
53858;BME280;39763;51.188;6.690;2022-09-09T05:17:27;100454.09;;;21.74;58.15
53858;BME280;39763;51.188;6.690;2022-09-09T05:18:59;100446.06;;;21.74;58.06
53858;BME280;39763;51.188;6.690;2022-09-09T05:20:40;100450.31;;;21.76;58.16
53858;BME280;39763;51.188;6.690;2022-09-09T05:22:17;100449.22;;;21.79;58.19
53858;BME280;39763;51.188;6.690;2022-09-09T05:23:51;100448.06;;;21.81;58.14
53858;BME280;39763;51.188;6.690;2022-09-09T05:25:23;100446.00;;;21.85;58.11
53858;BME280;39763;51.188;6.690;2022-09-09T05:26:59;100446.59;;;21.89;58.02
53858;BME280;39763;51.188;6.690;2022-09-09T05:28:33;100443.53;;;21.93;57.88
53858;BME280;39763;51.188;6.690;2022-09-09T05:30:06;100442.28;;;21.97;57.97
53858;BME280;39763;51.188;6.690;2022-09-09T05:31:39;100446.19;;;22.04;57.81
53858;BME280;39763;51.188;6.690;2022-09-09T05:33:14;100445.78;;;22.09;57.59
53858;BME280;39763;51.188;6.690;2022-09-09T05:34:46;100440.75;;;22.15;57.68
53858;BME280;39763;51.188;6.690;2022-09-09T05:36:20;100442.06;;;22.21;57.49
53858;BME280;39763;51.188;6.690;2022-09-09T05:37:58;100448.69;;;22.27;57.38
53858;BME280;39763;51.188;6.690;2022-09-09T05:39:32;100450.13;;;22.31;57.26
53858;BME280;39763;51.188;6.690;2022-09-09T05:41:04;100440.00;;;22.34;57.00
53858;BME280;39763;51.188;6.690;2022-09-09T05:42:36;100446.69;;;22.40;57.04
53858;BME280;39763;51.188;6.690;2022-09-09T05:44:08;100449.06;;;22.43;56.86
53858;BME280;39763;51.188;6.690;2022-09-09T05:45:42;100444.16;;;22.48;56.57
53858;BME280;39763;51.188;6.690;2022-09-09T05:47:14;100444.88;;;22.50;56.28
53858;BME280;39763;51.188;6.690;2022-09-09T05:48:47;100449.97;;;22.53;56.56
53858;BME280;39763;51.188;6.690;2022-09-09T05:50:19;100448.88;;;22.56;56.40
53858;BME280;39763;51.188;6.690;2022-09-09T05:51:52;100446.88;;;22.58;56.27
53858;BME280;39763;51.188;6.690;2022-09-09T05:53:25;100456.47;;;22.60;56.37
53858;BME280;39763;51.188;6.690;2022-09-09T05:54:56;100459.88;;;22.62;56.31
53858;BME280;39763;51.188;6.690;2022-09-09T05:56:28;100465.22;;;22.62;56.12
53858;BME280;39763;51.188;6.690;2022-09-09T05:58:02;100459.59;;;22.65;56.08
53858;BME280;39763;51.188;6.690;2022-09-09T05:59:33;100462.28;;;22.65;56.02
53858;BME280;39763;51.188;6.690;2022-09-09T06:01:07;100457.63;;;22.67;56.00
53858;BME280;39763;51.188;6.690;2022-09-09T06:02:39;100462.72;;;22.70;55.89
53858;BME280;39763;51.188;6.690;2022-09-09T06:04:15;100461.59;;;22.73;56.06
53858;BME280;39763;51.188;6.690;2022-09-09T06:05:47;100464.13;;;22.74;55.93
53858;BME280;39763;51.188;6.690;2022-09-09T06:07:20;100460.59;;;22.74;55.58
53858;BME280;39763;51.188;6.690;2022-09-09T06:08:52;100458.06;;;22.72;55.97
53858;BME280;39763;51.188;6.690;2022-09-09T06:10:24;100464.97;;;22.75;55.94
53858;BME280;39763;51.188;6.690;2022-09-09T06:11:58;100460.47;;;22.75;55.64
53858;BME280;39763;51.188;6.690;2022-09-09T06:13:30;100463.28;;;22.74;55.85
53858;BME280;39763;51.188;6.690;2022-09-09T06:15:02;100463.28;;;22.74;55.61
53858;BME280;39763;51.188;6.690;2022-09-09T06:16:34;100471.19;;;22.75;55.59
53858;BME280;39763;51.188;6.690;2022-09-09T06:18:05;100464.88;;;22.76;55.59
53858;BME280;39763;51.188;6.690;2022-09-09T06:19:37;100464.00;;;22.76;55.97
53858;BME280;39763;51.188;6.690;2022-09-09T06:21:09;100468.41;;;22.77;55.70
53858;BME280;39763;51.188;6.690;2022-09-09T06:22:44;100465.84;;;22.75;55.85
53858;BME280;39763;51.188;6.690;2022-09-09T06:24:19;100471.19;;;22.75;56.02
53858;BME280;39763;51.188;6.690;2022-09-09T06:25:51;100466.59;;;22.77;55.86
53858;BME280;39763;51.188;6.690;2022-09-09T06:27:23;100469.00;;;22.80;55.84
53858;BME280;39763;51.188;6.690;2022-09-09T06:28:54;100464.34;;;22.82;55.59
53858;BME280;39763;51.188;6.690;2022-09-09T06:30:28;100467.75;;;22.84;55.44
53858;BME280;39763;51.188;6.690;2022-09-09T06:32:01;100468.72;;;22.83;55.80
53858;BME280;39763;51.188;6.690;2022-09-09T06:33:35;100460.41;;;22.86;55.75
53858;BME280;39763;51.188;6.690;2022-09-09T06:35:07;100470.13;;;22.88;55.25
53858;BME280;39763;51.188;6.690;2022-09-09T06:36:39;100465.91;;;22.85;55.20
53858;BME280;39763;51.188;6.690;2022-09-09T06:38:12;100461.38;;;22.85;55.49
53858;BME280;39763;51.188;6.690;2022-09-09T06:39:44;100463.50;;;22.82;55.28
53858;BME280;39763;51.188;6.690;2022-09-09T06:41:16;100467.16;;;22.81;55.14
53858;BME280;39763;51.188;6.690;2022-09-09T06:42:49;100471.53;;;22.82;55.14
53858;BME280;39763;51.188;6.690;2022-09-09T06:44:39;100465.47;;;22.80;54.61
53858;BME280;39763;51.188;6.690;2022-09-09T06:46:16;100462.44;;;22.73;55.19
53858;BME280;39763;51.188;6.690;2022-09-09T06:47:49;100457.69;;;22.77;54.77
53858;BME280;39763;51.188;6.690;2022-09-09T06:49:22;100460.25;;;22.78;54.68
53858;BME280;39763;51.188;6.690;2022-09-09T06:51:00;100462.41;;;22.84;53.62
53858;BME280;39763;51.188;6.690;2022-09-09T06:52:33;100454.91;;;22.88;53.76
53858;BME280;39763;51.188;6.690;2022-09-09T06:54:06;100457.44;;;22.90;53.16
53858;BME280;39763;51.188;6.690;2022-09-09T06:55:38;100452.69;;;22.93;53.67
53858;BME280;39763;51.188;6.690;2022-09-09T06:57:12;100462.00;;;22.99;53.32
53858;BME280;39763;51.188;6.690;2022-09-09T06:59:05;100459.47;;;23.07;53.24
53858;BME280;39763;51.188;6.690;2022-09-09T07:00:37;100463.84;;;23.08;52.80
53858;BME280;39763;51.188;6.690;2022-09-09T07:02:10;100466.53;;;23.08;52.40
53858;BME280;39763;51.188;6.690;2022-09-09T07:03:44;100469.22;;;23.08;51.20
53858;BME280;39763;51.188;6.690;2022-09-09T07:05:16;100464.41;;;23.02;51.78
53858;BME280;39763;51.188;6.690;2022-09-09T07:06:50;100468.34;;;22.98;52.70
53858;BME280;39763;51.188;6.690;2022-09-09T07:08:27;100468.47;;;22.96;52.25
53858;BME280;39763;51.188;6.690;2022-09-09T07:10:00;100464.97;;;22.96;52.55
53858;BME280;39763;51.188;6.690;2022-09-09T07:11:34;100468.22;;;22.99;52.51
53858;BME280;39763;51.188;6.690;2022-09-09T07:13:08;100477.38;;;22.97;52.58
53858;BME280;39763;51.188;6.690;2022-09-09T07:14:41;100472.41;;;22.92;52.72
53858;BME280;39763;51.188;6.690;2022-09-09T07:16:14;100474.63;;;22.87;51.53
53858;BME280;39763;51.188;6.690;2022-09-09T07:17:46;100475.94;;;22.93;52.24
53858;BME280;39763;51.188;6.690;2022-09-09T07:19:19;100473.72;;;22.98;51.91
53858;BME280;39763;51.188;6.690;2022-09-09T07:20:55;100474.41;;;23.00;51.94
53858;BME280;39763;51.188;6.690;2022-09-09T07:22:28;100483.28;;;23.00;51.34
53858;BME280;39763;51.188;6.690;2022-09-09T07:24:01;100485.66;;;22.94;52.17
53858;BME280;39763;51.188;6.690;2022-09-09T07:25:34;100473.84;;;22.96;52.30
53858;BME280;39763;51.188;6.690;2022-09-09T07:27:06;100481.38;;;23.12;51.72
53858;BME280;39763;51.188;6.690;2022-09-09T07:28:39;100478.56;;;23.23;50.27
53858;BME280;39763;51.188;6.690;2022-09-09T07:30:11;100475.34;;;23.29;50.49
53858;BME280;39763;51.188;6.690;2022-09-09T07:31:51;100474.06;;;23.33;50.75
53858;BME280;39763;51.188;6.690;2022-09-09T07:33:28;100473.91;;;23.35;50.56
53858;BME280;39763;51.188;6.690;2022-09-09T07:35:01;100475.91;;;23.42;50.75
53858;BME280;39763;51.188;6.690;2022-09-09T07:36:34;100474.75;;;23.35;50.78
53858;BME280;39763;51.188;6.690;2022-09-09T07:38:06;100482.09;;;23.33;50.48
53858;BME280;39763;51.188;6.690;2022-09-09T07:39:38;100485.22;;;23.29;50.69
53858;BME280;39763;51.188;6.690;2022-09-09T07:41:12;100486.06;;;23.29;50.98
53858;BME280;39763;51.188;6.690;2022-09-09T07:42:44;100481.56;;;23.39;49.85
53858;BME280;39763;51.188;6.690;2022-09-09T07:44:18;100488.22;;;23.54;49.98
53858;BME280;39763;51.188;6.690;2022-09-09T07:45:56;100489.50;;;23.70;48.73
53858;BME280;39763;51.188;6.690;2022-09-09T07:47:28;100490.50;;;23.78;49.24
53858;BME280;39763;51.188;6.690;2022-09-09T07:49:00;100499.53;;;23.77;49.12
53858;BME280;39763;51.188;6.690;2022-09-09T07:50:36;100494.75;;;23.71;48.62
53858;BME280;39763;51.188;6.690;2022-09-09T07:52:08;100490.06;;;23.64;49.30
53858;BME280;39763;51.188;6.690;2022-09-09T07:53:43;100477.03;;;23.49;48.65
53858;BME280;39763;51.188;6.690;2022-09-09T07:55:15;100492.28;;;23.49;49.20
53858;BME280;39763;51.188;6.690;2022-09-09T07:56:48;100483.53;;;23.37;48.03
53858;BME280;39763;51.188;6.690;2022-09-09T07:58:22;100500.72;;;23.25;48.95
53858;BME280;39763;51.188;6.690;2022-09-09T07:59:53;100492.22;;;23.20;49.17
53858;BME280;39763;51.188;6.690;2022-09-09T08:01:27;100488.16;;;23.26;48.77
53858;BME280;39763;51.188;6.690;2022-09-09T08:02:59;100488.16;;;23.45;49.05
53858;BME280;39763;51.188;6.690;2022-09-09T08:04:33;100490.38;;;23.70;48.64
53858;BME280;39763;51.188;6.690;2022-09-09T08:06:07;100485.56;;;23.83;48.39
53858;BME280;39763;51.188;6.690;2022-09-09T08:07:41;100485.25;;;23.96;47.55
53858;BME280;39763;51.188;6.690;2022-09-09T08:09:13;100488.38;;;24.01;47.11
53858;BME280;39763;51.188;6.690;2022-09-09T08:10:46;100486.81;;;23.99;47.45
53858;BME280;39763;51.188;6.690;2022-09-09T08:12:19;100487.06;;;24.05;47.75
53858;BME280;39763;51.188;6.690;2022-09-09T08:13:51;100479.47;;;24.10;47.39